createdAt,value
2023-02-09T00:01:16.013Z,6.03
2023-02-09T00:03:44.169Z,6.10
2023-02-09T00:06:14.232Z,6.30
2023-02-09T00:08:41.875Z,7.40
2023-02-09T00:11:11.946Z,6.97
2023-02-09T00:13:38.601Z,6.53
2023-02-09T00:16:06.945Z,6.10
2023-02-09T00:18:34.892Z,7.60
2023-02-09T00:21:06.416Z,6.23
2023-02-09T00:23:36.537Z,5.57
2023-02-09T00:26:06.373Z,6.73
2023-02-09T00:28:35.543Z,7.33
2023-02-09T00:31:07.374Z,6.00
2023-02-09T00:33:35.416Z,5.83
2023-02-09T00:36:05.401Z,6.10
2023-02-09T00:38:33.145Z,6.30
2023-02-09T00:41:00.828Z,6.73
2023-02-09T00:43:28.773Z,6.87
2023-02-09T00:45:57.907Z,6.33
2023-02-09T00:48:25.654Z,6.70
2023-02-09T00:50:54.002Z,6.70
2023-02-09T00:53:22.662Z,5.97
2023-02-09T00:55:50.867Z,5.93
2023-02-09T00:58:18.576Z,5.67
2023-02-09T01:00:46.780Z,6.43
2023-02-09T01:03:16.082Z,6.67
2023-02-09T01:05:43.899Z,5.33
2023-02-09T01:08:11.609Z,6.13
2023-02-09T01:10:39.435Z,5.63
2023-02-09T01:13:07.744Z,6.13
2023-02-09T01:15:35.499Z,5.83
2023-02-09T01:18:03.133Z,5.10
2023-02-09T01:20:32.204Z,6.53
2023-02-09T01:22:59.913Z,5.90
2023-02-09T01:25:27.580Z,6.93
2023-02-09T01:27:55.308Z,6.97
2023-02-09T01:30:23.163Z,6.90
2023-02-09T01:32:50.876Z,7.47
2023-02-09T01:35:18.864Z,6.77
2023-02-09T01:37:47.894Z,6.00
2023-02-09T01:40:15.576Z,6.53
2023-02-09T01:42:43.349Z,6.70
2023-02-09T01:45:28.501Z,7.13
2023-02-09T01:47:58.191Z,6.57
2023-02-09T01:50:26.106Z,5.63
2023-02-09T01:52:58.370Z,6.60
2023-02-09T01:55:29.333Z,5.50
2023-02-09T01:57:59.269Z,6.53
2023-02-09T02:00:27.317Z,7.33
2023-02-09T02:02:57.919Z,6.30
2023-02-09T02:05:26.409Z,7.07
2023-02-09T02:07:59.396Z,7.03
2023-02-09T02:10:27.452Z,7.00
2023-02-09T02:12:55.618Z,6.07
2023-02-09T02:15:26.806Z,6.77
2023-02-09T02:18:07.790Z,7.10
2023-02-09T02:20:47.633Z,4.93
2023-02-09T02:23:23.330Z,5.33
2023-02-09T02:26:27.994Z,6.00
2023-02-09T02:29:13.705Z,4.47
2023-02-09T02:32:13.128Z,5.30
2023-02-09T02:34:46.744Z,4.80
2023-02-09T02:37:27.218Z,4.03
2023-02-09T02:40:00.665Z,4.87
2023-02-09T02:42:50.325Z,4.83
2023-02-09T02:45:24.781Z,4.70
2023-02-09T02:47:57.475Z,5.13
2023-02-09T02:50:27.699Z,5.10
2023-02-09T02:52:57.445Z,5.10
2023-02-09T02:55:27.634Z,4.23
2023-02-09T02:57:57.589Z,5.00
2023-02-09T03:00:31.487Z,5.50
2023-02-09T03:03:04.925Z,5.60
2023-02-09T03:05:32.755Z,3.93
2023-02-09T03:08:00.388Z,5.97
2023-02-09T03:10:32.569Z,5.20
2023-02-09T03:13:08.371Z,4.70
2023-02-09T03:15:46.163Z,3.93
2023-02-09T03:18:22.217Z,4.87
2023-02-09T03:20:52.581Z,4.63
2023-02-09T03:23:28.765Z,5.57
2023-02-09T03:25:57.308Z,5.50
2023-02-09T03:28:28.683Z,4.37
2023-02-09T03:30:57.320Z,4.20
2023-02-09T03:33:28.871Z,5.03
2023-02-09T03:35:58.296Z,5.07
2023-02-09T03:38:26.356Z,5.20
2023-02-09T03:40:54.381Z,4.10
2023-02-09T03:43:42.291Z,4.97
2023-02-09T03:46:10.500Z,5.73
2023-02-09T03:48:39.610Z,4.33
2023-02-09T03:51:07.720Z,4.27
2023-02-09T03:53:36.963Z,5.40
2023-02-09T03:56:04.895Z,5.37
2023-02-09T03:58:32.694Z,4.93
2023-02-09T04:01:04.722Z,5.33
2023-02-09T04:03:33.090Z,5.00
2023-02-09T04:06:02.387Z,5.67
2023-02-09T04:08:30.184Z,5.97
2023-02-09T04:10:58.156Z,4.67
2023-02-09T04:13:25.913Z,4.90
2023-02-09T04:15:53.918Z,5.20
2023-02-09T04:18:21.777Z,6.87
2023-02-09T04:20:49.530Z,6.60
2023-02-09T04:23:20.926Z,5.70
2023-02-09T04:25:48.881Z,5.87
2023-02-09T04:28:16.639Z,5.20
2023-02-09T04:30:44.753Z,5.27
2023-02-09T04:33:12.599Z,5.63
2023-02-09T04:35:40.251Z,5.83
2023-02-09T04:38:07.908Z,5.53
2023-02-09T04:40:36.874Z,5.83
2023-02-09T04:43:04.555Z,4.87
2023-02-09T04:45:32.269Z,7.23
2023-02-09T04:47:59.924Z,6.63
2023-02-09T04:50:27.605Z,7.27
2023-02-09T04:52:55.305Z,5.97
2023-02-09T04:55:22.966Z,7.13
2023-02-09T04:58:09.438Z,7.13
2023-02-09T05:00:37.127Z,7.60
2023-02-09T05:03:04.989Z,7.53
2023-02-09T05:05:32.681Z,8.53
2023-02-09T05:08:00.392Z,8.87
2023-02-09T05:10:28.150Z,8.50
2023-02-09T05:12:57.141Z,7.60
2023-02-09T05:15:24.825Z,7.23
2023-02-09T05:17:52.616Z,7.10
2023-02-09T05:20:20.501Z,6.30
2023-02-09T05:22:50.086Z,6.47
2023-02-09T05:25:18.088Z,7.60
2023-02-09T05:27:45.784Z,8.13
2023-02-09T05:30:15.033Z,8.00
2023-02-09T05:32:42.716Z,6.53
2023-02-09T05:35:10.429Z,7.20
2023-02-09T05:37:38.084Z,5.97
2023-02-09T05:40:06.731Z,7.17
2023-02-09T05:42:34.358Z,7.53
2023-02-09T05:45:02.125Z,7.67
2023-02-09T05:47:31.197Z,7.17
2023-02-09T05:49:58.882Z,6.40
2023-02-09T05:52:26.831Z,7.23
2023-02-09T05:54:54.488Z,7.03
2023-02-09T05:57:22.170Z,6.80
2023-02-09T05:59:49.854Z,7.80
2023-02-09T06:02:17.566Z,7.83
2023-02-09T06:04:46.564Z,8.90
2023-02-09T06:07:14.447Z,9.30
2023-02-09T06:09:42.093Z,8.47
2023-02-09T06:12:09.868Z,9.90
2023-02-09T06:14:37.510Z,9.37
2023-02-09T06:17:05.260Z,10.27
2023-02-09T06:19:33.027Z,10.00
2023-02-09T06:22:02.096Z,9.67
2023-02-09T06:24:29.825Z,9.37
2023-02-09T06:26:57.488Z,9.00
2023-02-09T06:29:25.201Z,10.43
2023-02-09T06:31:53.020Z,10.00
2023-02-09T06:34:20.731Z,9.83
2023-02-09T06:36:48.436Z,10.37
2023-02-09T06:39:17.407Z,9.47
2023-02-09T06:41:45.094Z,10.20
2023-02-09T06:44:13.472Z,9.43
2023-02-09T06:46:41.202Z,10.50
2023-02-09T06:49:08.900Z,10.70
2023-02-09T06:54:28.345Z,9.77
2023-02-09T06:56:57.097Z,10.20
2023-02-09T06:59:25.024Z,10.60
2023-02-09T07:01:55.030Z,10.40
2023-02-09T07:04:22.987Z,10.10
2023-02-09T07:06:50.665Z,10.90
2023-02-09T07:09:18.342Z,10.47
2023-02-09T07:11:47.323Z,11.37
2023-02-09T07:14:14.951Z,11.37
2023-02-09T07:16:55.166Z,10.47
2023-02-09T07:19:22.823Z,10.60
2023-02-09T07:21:51.058Z,9.87
2023-02-09T07:24:21.097Z,10.17
2023-02-09T07:26:50.140Z,9.30
2023-02-09T07:29:17.990Z,10.40
2023-02-09T07:31:45.837Z,10.37
2023-02-09T07:34:13.556Z,10.50
2023-02-09T07:36:41.287Z,11.50
2023-02-09T07:39:08.928Z,10.50
2023-02-09T07:41:37.061Z,11.30
2023-02-09T07:44:06.229Z,9.43
2023-02-09T07:46:34.325Z,9.73
2023-02-09T07:49:01.984Z,9.97
2023-02-09T07:51:29.735Z,9.77
2023-02-09T07:53:58.571Z,10.13
2023-02-09T07:56:26.746Z,11.03
2023-02-09T07:58:54.632Z,9.73
2023-02-09T08:01:24.519Z,11.70
2023-02-09T08:03:52.439Z,11.37
2023-02-09T08:06:30.409Z,10.70
2023-02-09T08:09:05.771Z,11.40
2023-02-09T08:11:35.554Z,10.87
2023-02-09T08:14:05.316Z,11.33
2023-02-09T08:16:35.087Z,9.20
2023-02-09T08:19:04.839Z,9.67
2023-02-09T08:21:35.579Z,9.50
2023-02-09T08:24:05.578Z,9.67
2023-02-09T08:26:33.509Z,9.80
2023-02-09T08:29:01.185Z,7.73
2023-02-09T08:31:29.072Z,9.63
2023-02-09T08:33:58.381Z,10.27
2023-02-09T08:36:26.207Z,8.53
2023-02-09T08:38:54.492Z,8.43
2023-02-09T08:41:22.143Z,8.70
2023-02-09T08:43:51.544Z,8.83
2023-02-09T08:46:19.797Z,10.13
2023-02-09T08:48:47.859Z,8.23
2023-02-09T08:51:17.630Z,8.60
2023-02-09T08:53:52.146Z,8.80
2023-02-09T08:56:20.653Z,10.17
2023-02-09T08:58:48.340Z,8.53
2023-02-09T09:01:16.159Z,7.50
2023-02-09T09:03:44.013Z,9.27
2023-02-09T09:06:12.389Z,9.20
2023-02-09T09:08:43.772Z,7.87
2023-02-09T09:11:13.239Z,8.77
2023-02-09T09:13:41.768Z,8.17
2023-02-09T09:16:15.194Z,8.20
2023-02-09T09:18:44.303Z,7.47
2023-02-09T09:21:12.369Z,6.83
2023-02-09T09:23:42.740Z,7.53
2023-02-09T09:26:10.806Z,7.83
2023-02-09T09:28:38.693Z,7.43
2023-02-09T09:31:09.018Z,8.97
2023-02-09T09:33:36.898Z,9.53
2023-02-09T09:36:05.864Z,9.03
2023-02-09T09:38:34.648Z,8.77
2023-02-09T09:41:04.239Z,7.00
2023-02-09T09:43:35.058Z,8.13
2023-02-09T09:46:04.573Z,8.03
2023-02-09T09:48:40.469Z,7.57
2023-02-09T09:51:14.007Z,8.60
2023-02-09T09:53:43.844Z,7.00
2023-02-09T09:56:14.308Z,7.57
2023-02-09T09:58:44.728Z,7.60
2023-02-09T10:01:14.169Z,7.37
2023-02-09T10:03:42.171Z,7.73
2023-02-09T10:06:15.920Z,6.77
2023-02-09T10:08:48.363Z,7.03
2023-02-09T10:11:18.973Z,9.20
2023-02-09T10:13:50.419Z,7.10
2023-02-09T10:16:20.254Z,6.90
2023-02-09T10:18:51.498Z,8.30
2023-02-09T10:21:19.790Z,7.60
2023-02-09T10:23:49.358Z,7.93
2023-02-09T10:26:26.645Z,7.10
2023-02-09T10:28:57.215Z,6.87
2023-02-09T10:31:27.430Z,7.47
2023-02-09T10:34:00.305Z,9.07
2023-02-09T10:36:30.515Z,6.87
2023-02-09T10:39:20.175Z,7.40
2023-02-09T10:41:51.052Z,7.60
2023-02-09T10:44:22.452Z,5.93
2023-02-09T10:46:50.355Z,6.30
2023-02-09T10:49:29.370Z,6.83
2023-02-09T10:54:43.202Z,6.87
2023-02-09T10:57:26.587Z,6.27
2023-02-09T10:59:55.686Z,7.20
2023-02-09T11:02:34.774Z,6.50
2023-02-09T11:05:02.533Z,6.80
2023-02-09T11:07:33.413Z,6.67
2023-02-09T11:10:01.564Z,6.90
2023-02-09T11:12:30.606Z,6.87
2023-02-09T11:14:58.275Z,7.57
2023-02-09T11:17:28.123Z,7.23
2023-02-09T11:20:06.224Z,5.83
2023-02-09T11:22:47.348Z,7.07
2023-02-09T11:25:21.085Z,6.67
2023-02-09T11:27:59.481Z,7.77
2023-02-09T11:30:37.270Z,6.57
2023-02-09T11:33:10.509Z,6.87
2023-02-09T11:35:46.347Z,6.37
2023-02-09T11:38:17.039Z,7.50
2023-02-09T11:40:48.151Z,7.20
2023-02-09T11:43:21.643Z,6.50
2023-02-09T11:45:50.232Z,7.40
2023-02-09T11:48:24.254Z,6.53
2023-02-09T11:51:02.038Z,6.37
2023-02-09T11:53:35.092Z,7.53
2023-02-09T11:56:04.873Z,7.30
2023-02-09T11:58:41.841Z,7.07
2023-02-09T12:01:17.579Z,5.90
2023-02-09T12:03:55.283Z,6.73
2023-02-09T12:06:23.724Z,6.13
2023-02-09T12:09:00.152Z,7.13
2023-02-09T12:11:34.321Z,6.83
2023-02-09T12:14:24.480Z,6.37
2023-02-09T12:16:59.367Z,5.47
2023-02-09T12:19:33.556Z,7.40
2023-02-09T12:22:42.766Z,5.80
2023-02-09T12:25:20.064Z,6.70
2023-02-09T12:28:12.482Z,7.07
2023-02-09T12:31:06.690Z,6.17
2023-02-09T12:33:35.942Z,6.97
2023-02-09T12:36:06.370Z,6.50
2023-02-09T12:39:05.746Z,6.17
2023-02-09T12:42:15.462Z,6.60
2023-02-09T12:44:56.187Z,6.63
2023-02-09T12:47:45.307Z,6.20
2023-02-09T12:50:33.075Z,6.57
2023-02-09T12:53:36.160Z,6.33
2023-02-09T12:56:06.107Z,5.30
2023-02-09T12:58:39.008Z,6.10
2023-02-09T13:01:07.045Z,6.13
2023-02-09T13:03:42.667Z,6.10
2023-02-09T13:06:25.576Z,6.57
2023-02-09T13:08:57.431Z,6.10
2023-02-09T13:11:33.297Z,6.20
2023-02-09T13:14:03.263Z,5.20
2023-02-09T13:16:59.379Z,5.57
2023-02-09T13:20:02.348Z,6.20
2023-02-09T13:22:39.720Z,5.97
2023-02-09T13:25:15.217Z,5.87
2023-02-09T13:27:48.046Z,6.80
2023-02-09T13:30:25.833Z,5.60
2023-02-09T13:33:01.862Z,6.43
2023-02-09T13:35:34.412Z,5.40
2023-02-09T13:38:09.079Z,6.03
2023-02-09T13:40:37.188Z,6.80
2023-02-09T13:43:17.232Z,5.30
2023-02-09T13:45:47.791Z,6.00
2023-02-09T13:48:23.675Z,6.20
2023-02-09T13:50:53.999Z,5.50
2023-02-09T13:53:24.934Z,6.23
2023-02-09T13:55:53.186Z,6.03
2023-02-09T13:58:22.641Z,6.07
2023-02-09T14:00:52.810Z,6.17
2023-02-09T14:03:22.610Z,6.27
2023-02-09T14:05:55.562Z,6.60
2023-02-09T14:08:23.903Z,7.20
2023-02-09T14:10:54.509Z,7.57
2023-02-09T14:13:25.544Z,6.47
2023-02-09T14:16:09.501Z,6.63
2023-02-09T14:18:46.687Z,6.47
2023-02-09T14:21:29.655Z,6.17
2023-02-09T14:24:16.642Z,6.10
2023-02-09T14:26:47.429Z,7.00
2023-02-09T14:29:18.268Z,6.20
2023-02-09T14:31:47.475Z,6.57
2023-02-09T14:34:25.198Z,6.83
2023-02-09T14:36:55.713Z,6.73
2023-02-09T14:39:23.561Z,6.37
2023-02-09T14:41:59.522Z,7.60
2023-02-09T14:44:27.833Z,6.40
2023-02-09T14:46:56.948Z,8.20
2023-02-09T14:49:25.249Z,8.47
2023-02-09T14:52:01.404Z,8.07
2023-02-09T14:54:30.860Z,8.13
2023-02-09T14:57:00.821Z,7.33
2023-02-09T14:59:28.754Z,6.97
2023-02-09T15:01:56.530Z,6.80
2023-02-09T15:04:24.398Z,6.60
2023-02-09T15:07:01.292Z,7.10
2023-02-09T15:09:35.266Z,6.10
2023-02-09T15:12:06.819Z,6.40
2023-02-09T15:14:38.902Z,6.20
2023-02-09T15:17:13.279Z,6.77
2023-02-09T15:19:41.175Z,7.03
2023-02-09T15:22:13.481Z,5.77
2023-02-09T15:24:41.714Z,7.50
2023-02-09T15:27:24.834Z,6.70
2023-02-09T15:29:52.931Z,6.63
2023-02-09T15:32:21.822Z,6.67
2023-02-09T15:34:49.799Z,7.10
2023-02-09T15:37:22.568Z,6.40
2023-02-09T15:39:51.254Z,7.43
2023-02-09T15:42:37.513Z,6.80
2023-02-09T15:45:36.388Z,6.50
2023-02-09T15:48:04.990Z,7.77
2023-02-09T15:50:34.317Z,7.20
2023-02-09T15:53:04.866Z,7.57
2023-02-09T15:55:33.027Z,7.90
2023-02-09T15:58:01.009Z,7.27
2023-02-09T16:00:30.481Z,7.13
2023-02-09T16:03:01.128Z,7.03
2023-02-09T16:05:30.918Z,7.40
2023-02-09T16:08:00.116Z,7.43
2023-02-09T16:10:30.384Z,6.70
2023-02-09T16:12:58.116Z,9.23
2023-02-09T16:15:27.380Z,8.20
2023-02-09T16:17:55.135Z,8.30
2023-02-09T16:20:24.874Z,7.57
2023-02-09T16:22:54.517Z,8.30
2023-02-09T16:25:24.458Z,8.93
2023-02-09T16:27:54.576Z,10.30
2023-02-09T16:30:24.086Z,9.67
2023-02-09T16:32:53.666Z,10.07
2023-02-09T16:35:22.985Z,10.03
2023-02-09T16:37:52.142Z,9.27
2023-02-09T16:40:25.212Z,10.73
2023-02-09T16:42:54.998Z,11.00
2023-02-09T16:45:23.579Z,11.60
2023-02-09T16:47:54.867Z,12.93
2023-02-09T16:50:25.506Z,12.13
2023-02-09T16:55:35.283Z,12.07
2023-02-09T16:58:05.852Z,11.60
2023-02-09T17:00:35.400Z,12.53
2023-02-09T17:03:09.494Z,14.63
2023-02-09T17:05:38.052Z,16.17
2023-02-09T17:08:07.852Z,13.87
2023-02-09T17:10:36.143Z,14.20
2023-02-09T17:13:05.621Z,13.17
2023-02-09T17:15:39.305Z,11.70
2023-02-09T17:18:09.278Z,12.53
2023-02-09T17:20:39.530Z,12.57
2023-02-09T17:23:07.308Z,12.07
2023-02-09T17:25:35.500Z,12.80
2023-02-09T17:28:03.248Z,14.17
2023-02-09T17:30:33.860Z,15.00
2023-02-09T17:33:03.455Z,15.33
2023-02-09T17:36:13.989Z,16.23
2023-02-09T17:38:24.226Z,18.03
2023-02-09T17:40:52.893Z,17.07
2023-02-09T17:43:20.871Z,18.77
2023-02-09T17:45:51.314Z,15.63
2023-02-09T17:48:19.561Z,16.07
2023-02-09T17:50:48.542Z,15.40
2023-02-09T17:53:17.930Z,16.53
2023-02-09T17:55:47.916Z,15.87
2023-02-09T17:58:15.913Z,15.43
2023-02-09T18:00:45.145Z,17.47
2023-02-09T18:03:16.304Z,17.07
2023-02-09T18:05:44.559Z,17.03
2023-02-09T18:08:12.408Z,17.60
2023-02-09T18:10:40.067Z,19.00
2023-02-09T18:13:07.725Z,18.70
2023-02-09T18:15:37.029Z,19.13
2023-02-09T18:18:05.378Z,20.00
2023-02-09T18:20:36.082Z,23.77
2023-02-09T18:23:05.383Z,24.20
2023-02-09T18:25:34.738Z,24.63
2023-02-09T18:28:02.851Z,25.43
2023-02-09T18:30:32.452Z,24.57
2023-02-09T18:33:00.748Z,26.57
2023-02-09T18:35:33.614Z,26.60
2023-02-09T18:38:03.445Z,27.37
2023-02-09T18:40:33.064Z,24.87
2023-02-09T18:43:01.377Z,24.07
2023-02-09T18:45:30.537Z,24.60
2023-02-09T18:47:58.571Z,20.93
2023-02-09T18:50:30.653Z,22.83
2023-02-09T18:55:46.793Z,20.27
2023-02-09T18:58:14.865Z,22.57
2023-02-09T19:00:42.593Z,21.30
2023-02-09T19:03:11.495Z,20.93
2023-02-09T19:05:39.179Z,22.27
2023-02-09T19:08:07.925Z,24.20
2023-02-09T19:10:38.289Z,22.67
2023-02-09T19:13:07.775Z,20.90
2023-02-09T19:15:38.693Z,20.63
2023-02-09T19:18:06.785Z,20.13
2023-02-09T19:20:34.996Z,20.50
2023-02-09T19:23:03.862Z,21.13
2023-02-09T19:25:33.120Z,22.67
2023-02-09T19:28:01.286Z,21.80
2023-02-09T19:30:30.486Z,23.53
2023-02-09T19:33:00.012Z,21.43
2023-02-09T19:35:29.336Z,23.70
2023-02-09T19:37:59.033Z,22.70
2023-02-09T19:40:36.164Z,26.77
2023-02-09T19:43:03.959Z,22.90
2023-02-09T19:45:36.445Z,24.20
2023-02-09T19:48:04.845Z,25.37
2023-02-09T19:50:32.562Z,26.87
2023-02-09T19:55:48.698Z,25.50
2023-02-09T19:58:16.575Z,27.23
2023-02-09T20:00:45.622Z,30.43
2023-02-09T20:03:14.225Z,29.23
2023-02-09T20:05:42.584Z,30.00
2023-02-09T20:08:10.640Z,28.57
2023-02-09T20:10:39.850Z,32.07
2023-02-09T20:13:08.503Z,31.13
2023-02-09T20:15:36.392Z,30.33
2023-02-09T20:18:05.468Z,32.37
2023-02-09T20:20:33.134Z,32.43
2023-02-09T20:23:00.856Z,30.90
2023-02-09T20:25:28.642Z,31.63
2023-02-09T20:27:56.641Z,30.60
2023-02-09T20:30:24.382Z,31.60
2023-02-09T20:32:52.087Z,30.27
2023-02-09T20:35:21.225Z,34.27
2023-02-09T20:37:48.909Z,29.73
2023-02-09T20:40:16.926Z,30.30
2023-02-09T20:43:02.300Z,28.43
2023-02-09T20:45:47.661Z,31.07
2023-02-09T20:48:15.493Z,32.93
2023-02-09T20:50:45.333Z,36.23
2023-02-09T20:56:01.612Z,40.80
2023-02-09T20:58:29.428Z,43.70
2023-02-09T21:00:57.150Z,48.37
2023-02-09T21:03:25.062Z,46.93
2023-02-09T21:05:54.096Z,53.27
2023-02-09T21:08:22.830Z,48.90
2023-02-09T21:10:56.177Z,48.93
2023-02-09T21:13:24.116Z,49.37
2023-02-09T21:15:51.881Z,45.70
2023-02-09T21:18:21.505Z,46.03
2023-02-09T21:20:49.977Z,40.13
2023-02-09T21:23:19.623Z,41.37
2023-02-09T21:25:47.330Z,37.03
2023-02-09T21:28:15.125Z,36.93
2023-02-09T21:30:43.797Z,38.40
2023-02-09T21:33:11.456Z,33.70
2023-02-09T21:35:40.625Z,34.90
2023-02-09T21:38:08.319Z,33.93
2023-02-09T21:40:37.310Z,34.13
2023-02-09T21:43:05.038Z,30.93
2023-02-09T21:45:32.843Z,35.97
2023-02-09T21:48:00.966Z,36.80
2023-02-09T21:50:28.654Z,36.40
2023-02-09T21:52:56.488Z,38.10
2023-02-09T21:55:24.137Z,40.67
2023-02-09T21:57:53.151Z,41.40
2023-02-09T22:00:21.339Z,38.33
2023-02-09T22:02:53.129Z,37.33
2023-02-09T22:05:20.930Z,36.10
2023-02-09T22:07:49.758Z,35.20
2023-02-09T22:10:18.509Z,35.50
2023-02-09T22:12:46.505Z,35.50
2023-02-09T22:15:18.005Z,33.53
2023-02-09T22:17:47.775Z,33.67
2023-02-09T22:20:15.426Z,32.33
2023-02-09T22:22:45.355Z,32.10
2023-02-09T22:25:13.050Z,29.27
2023-02-09T22:27:40.757Z,30.23
2023-02-09T22:30:09.583Z,29.43
2023-02-09T22:32:38.741Z,34.53
2023-02-09T22:35:06.946Z,31.50
2023-02-09T22:37:34.620Z,35.63
2023-02-09T22:40:02.300Z,31.33
2023-02-09T22:42:30.026Z,32.87
2023-02-09T22:44:57.695Z,32.27
2023-02-09T22:47:25.479Z,30.33
2023-02-09T22:49:54.537Z,30.10
2023-02-09T22:52:23.361Z,29.90
2023-02-09T22:54:51.282Z,28.30
2023-02-09T22:57:18.981Z,28.57
2023-02-09T22:59:46.616Z,25.90
2023-02-09T23:02:14.261Z,29.43
2023-02-09T23:04:41.904Z,28.20
2023-02-09T23:07:11.067Z,27.87
2023-02-09T23:09:38.751Z,25.27
2023-02-09T23:12:06.758Z,27.07
2023-02-09T23:14:34.433Z,26.67
2023-02-09T23:17:02.083Z,27.27
2023-02-09T23:19:29.864Z,26.30
2023-02-09T23:21:57.579Z,28.43
2023-02-09T23:24:26.747Z,25.07
2023-02-09T23:26:55.861Z,22.97
2023-02-09T23:29:23.515Z,24.37
2023-02-09T23:31:51.333Z,24.30
2023-02-09T23:34:22.123Z,27.53
2023-02-09T23:36:49.978Z,28.13
2023-02-09T23:39:19.459Z,28.13
2023-02-09T23:41:48.484Z,26.33
2023-02-09T23:44:16.183Z,25.00
2023-02-09T23:46:44.738Z,28.37
2023-02-09T23:49:12.714Z,27.33
2023-02-09T23:51:40.625Z,26.53
2023-02-09T23:54:08.467Z,27.00
2023-02-09T23:56:37.763Z,26.00
2023-02-09T23:59:08.650Z,24.03
